createdAt,value
2023-02-16T00:03:01.975Z,-23.28
2023-02-16T00:08:24.684Z,-23.33
2023-02-16T00:13:53.345Z,-23.27
2023-02-16T00:18:56.337Z,-23.32
2023-02-16T00:23:59.000Z,-23.36
2023-02-16T00:29:02.215Z,-23.39
2023-02-16T00:34:27.053Z,-23.56
2023-02-16T00:39:30.587Z,-23.42
2023-02-16T00:44:42.576Z,-23.46
2023-02-16T00:49:46.369Z,-23.47
2023-02-16T00:54:49.179Z,-23.48
2023-02-16T01:00:00.421Z,-23.50
2023-02-16T01:05:03.415Z,-23.51
2023-02-16T01:10:25.376Z,-23.51
2023-02-16T01:15:27.955Z,-23.58
2023-02-16T01:20:31.011Z,-23.72
2023-02-16T01:25:37.125Z,-23.80
2023-02-16T01:30:39.897Z,-23.80
2023-02-16T01:35:42.905Z,-23.88
2023-02-16T01:40:58.626Z,-23.89
2023-02-16T01:46:12.689Z,-23.99
2023-02-16T01:51:22.574Z,-23.95
2023-02-16T01:56:33.405Z,-23.89
2023-02-16T02:01:43.190Z,-23.91
2023-02-16T02:06:46.071Z,-23.82
2023-02-16T02:12:04.469Z,-23.75
2023-02-16T02:17:11.826Z,-23.71
2023-02-16T02:23:02.415Z,-23.60
2023-02-16T02:28:21.015Z,-23.53
2023-02-16T02:33:42.110Z,-23.43
2023-02-16T02:39:03.828Z,-23.54
2023-02-16T02:44:08.186Z,-23.26
2023-02-16T02:49:11.084Z,-23.11
2023-02-16T02:54:50.340Z,-23.04
2023-02-16T03:00:40.559Z,-23.05
2023-02-16T03:06:15.975Z,-22.71
2023-02-16T03:11:42.040Z,-22.68
2023-02-16T03:16:49.112Z,-22.64
2023-02-16T03:22:10.562Z,-22.59
2023-02-16T03:27:33.407Z,-22.50
2023-02-16T03:32:36.366Z,-22.42
2023-02-16T03:37:40.687Z,-22.28
2023-02-16T03:42:52.891Z,-22.17
2023-02-16T03:47:55.844Z,-22.08
2023-02-16T03:53:07.651Z,-21.95
2023-02-16T03:58:10.958Z,-21.85
2023-02-16T04:03:13.841Z,-21.80
2023-02-16T04:08:16.660Z,-21.55
2023-02-16T04:13:19.461Z,-21.35
2023-02-16T04:18:22.269Z,-21.24
2023-02-16T04:23:25.269Z,-21.08
2023-02-16T04:28:27.977Z,-20.92
2023-02-16T04:33:30.651Z,-20.74
2023-02-16T04:38:33.421Z,-20.58
2023-02-16T04:43:36.102Z,-20.43
2023-02-16T04:48:39.882Z,-20.23
2023-02-16T04:53:42.502Z,-20.01
2023-02-16T04:58:45.239Z,-19.77
2023-02-16T05:03:48.526Z,-19.59
2023-02-16T05:08:51.218Z,-19.46
2023-02-16T05:14:12.062Z,-19.23
2023-02-16T05:19:14.792Z,-19.07
2023-02-16T05:24:17.229Z,-18.89
2023-02-16T05:29:19.678Z,-18.70
2023-02-16T05:34:22.194Z,-18.49
2023-02-16T05:39:25.079Z,-18.29
2023-02-16T05:44:27.950Z,-18.07
2023-02-16T05:49:30.411Z,-17.88
2023-02-16T05:54:33.210Z,-17.67
2023-02-16T05:59:35.874Z,-17.47
2023-02-16T06:04:38.599Z,-17.27
2023-02-16T06:09:41.296Z,-17.07
2023-02-16T06:14:44.039Z,-17.14
2023-02-16T06:19:46.726Z,-16.71
2023-02-16T06:24:49.388Z,-16.78
2023-02-16T06:29:55.522Z,-16.46
2023-02-16T06:34:58.330Z,-16.36
2023-02-16T06:40:01.149Z,-16.21
2023-02-16T06:45:04.847Z,-16.00
2023-02-16T06:50:10.220Z,-15.84
2023-02-16T06:55:13.226Z,-15.66
2023-02-16T07:00:16.796Z,-15.51
2023-02-16T07:05:19.460Z,-15.34
2023-02-16T07:10:22.107Z,-15.18
2023-02-16T07:15:24.818Z,-15.17
2023-02-16T07:20:28.496Z,-14.88
2023-02-16T07:25:31.149Z,-14.68
2023-02-16T07:30:33.890Z,-14.41
2023-02-16T07:35:37.344Z,-14.26
2023-02-16T07:40:40.017Z,-14.53
2023-02-16T07:45:42.917Z,-13.99
2023-02-16T07:50:45.792Z,-13.92
2023-02-16T07:55:48.835Z,-13.70
2023-02-16T08:00:51.526Z,-13.54
2023-02-16T08:05:54.234Z,-13.38
2023-02-16T08:10:56.853Z,-13.19
2023-02-16T08:15:59.447Z,-12.99
2023-02-16T08:21:14.636Z,-12.82
2023-02-16T08:26:17.874Z,-12.69
2023-02-16T08:31:23.587Z,-12.51
2023-02-16T08:36:34.970Z,-12.38
2023-02-16T08:41:37.922Z,-12.25
2023-02-16T08:46:42.989Z,-12.16
2023-02-16T08:51:52.792Z,-12.10
2023-02-16T08:56:55.943Z,-11.96
2023-02-16T09:01:59.844Z,-11.94
2023-02-16T09:07:02.681Z,-11.95
2023-02-16T09:12:07.207Z,-11.93
2023-02-16T09:17:09.944Z,-11.90
2023-02-16T09:22:13.362Z,-11.82
2023-02-16T09:27:16.160Z,-11.77
2023-02-16T09:32:18.803Z,-11.88
2023-02-16T09:37:21.748Z,-11.66
2023-02-16T09:42:58.061Z,-11.65
2023-02-16T09:48:00.760Z,-11.53
2023-02-16T09:53:09.409Z,-11.47
2023-02-16T09:58:19.876Z,-11.43
2023-02-16T10:03:25.484Z,-11.45
2023-02-16T10:08:40.374Z,-11.51
2023-02-16T10:13:53.782Z,-11.49
2023-02-16T10:18:57.094Z,-11.50
2023-02-16T10:24:05.351Z,-11.54
2023-02-16T10:29:22.495Z,-11.64
2023-02-16T10:34:51.734Z,-11.66
2023-02-16T10:40:12.643Z,-11.73
2023-02-16T10:45:27.230Z,-11.89
2023-02-16T10:50:42.492Z,-11.91
2023-02-16T10:55:45.268Z,-11.98
2023-02-16T11:00:53.280Z,-12.13
2023-02-16T11:05:56.353Z,-12.17
2023-02-16T11:11:00.305Z,-12.29
2023-02-16T11:16:07.339Z,-12.39
2023-02-16T11:21:11.634Z,-12.45
2023-02-16T11:26:24.975Z,-12.49
2023-02-16T11:31:37.785Z,-12.61
2023-02-16T11:36:47.923Z,-12.68
2023-02-16T11:41:54.515Z,-12.76
2023-02-16T11:46:58.316Z,-12.86
2023-02-16T11:52:01.514Z,-12.94
2023-02-16T11:57:15.963Z,-13.05
2023-02-16T12:02:46.754Z,-13.11
2023-02-16T12:08:08.049Z,-13.13
2023-02-16T12:13:33.513Z,-13.23
2023-02-16T12:18:42.001Z,-13.29
2023-02-16T12:24:07.243Z,-13.34
2023-02-16T12:29:24.866Z,-13.44
2023-02-16T12:34:51.340Z,-13.45
2023-02-16T12:40:01.064Z,-13.36
2023-02-16T12:45:10.021Z,-13.38
2023-02-16T12:50:25.001Z,-13.61
2023-02-16T12:55:35.041Z,-13.78
2023-02-16T13:00:52.969Z,-14.06
2023-02-16T13:06:26.810Z,-14.09
2023-02-16T13:11:35.861Z,-14.21
2023-02-16T13:16:52.716Z,-14.50
2023-02-16T13:22:19.711Z,-14.32
2023-02-16T13:27:43.505Z,-14.37
2023-02-16T13:33:25.741Z,-14.45
2023-02-16T13:38:41.378Z,-14.29
2023-02-16T13:43:56.009Z,-14.16
2023-02-16T13:48:59.723Z,-14.06
2023-02-16T13:54:03.937Z,-13.99
2023-02-16T13:59:21.585Z,-13.89
2023-02-16T14:04:25.051Z,-13.91
2023-02-16T14:09:34.055Z,-13.97
2023-02-16T14:14:42.908Z,-14.02
2023-02-16T14:19:57.602Z,-14.00
2023-02-16T14:25:02.844Z,-14.03
2023-02-16T14:30:24.803Z,-14.04
2023-02-16T14:35:35.081Z,-14.04
2023-02-16T14:40:42.624Z,-14.08
2023-02-16T14:45:51.350Z,-14.23
2023-02-16T14:51:42.207Z,-14.36
2023-02-16T14:57:24.464Z,-14.61
2023-02-16T15:02:33.252Z,-14.60
2023-02-16T15:07:38.066Z,-14.70
2023-02-16T15:12:41.179Z,-14.75
2023-02-16T15:17:48.936Z,-14.80
2023-02-16T15:22:57.371Z,-14.80
2023-02-16T15:28:28.029Z,-14.84
2023-02-16T15:33:36.627Z,-14.75
2023-02-16T15:38:42.205Z,-14.81
2023-02-16T15:43:49.295Z,-14.85
2023-02-16T15:48:52.022Z,-14.86
2023-02-16T15:54:03.654Z,-14.92
2023-02-16T15:59:44.442Z,-14.95
2023-02-16T16:04:56.290Z,-15.08
2023-02-16T16:10:00.252Z,-15.13
2023-02-16T16:15:04.698Z,-15.19
2023-02-16T16:20:22.729Z,-15.17
2023-02-16T16:25:43.816Z,-15.20
2023-02-16T16:30:47.054Z,-15.24
2023-02-16T16:35:51.108Z,-15.36
2023-02-16T16:41:00.046Z,-15.51
2023-02-16T16:46:09.014Z,-15.44
2023-02-16T16:51:13.042Z,-15.51
2023-02-16T16:56:15.775Z,-15.51
2023-02-16T17:01:20.294Z,-15.58
2023-02-16T17:06:23.752Z,-15.61
2023-02-16T17:11:27.456Z,-15.70
2023-02-16T17:16:32.997Z,-15.76
2023-02-16T17:21:35.737Z,-15.78
2023-02-16T17:26:38.605Z,-15.91
2023-02-16T17:31:41.371Z,-16.00
2023-02-16T17:36:44.108Z,-16.01
2023-02-16T17:41:46.710Z,-16.11
2023-02-16T17:46:49.527Z,-16.14
2023-02-16T17:51:52.260Z,-16.22
2023-02-16T17:56:54.947Z,-16.24
2023-02-16T18:01:57.801Z,-16.32
2023-02-16T18:07:00.456Z,-16.40
2023-02-16T18:12:03.132Z,-16.40
2023-02-16T18:17:07.254Z,-16.38
2023-02-16T18:22:10.252Z,-16.40
2023-02-16T18:27:12.997Z,-16.31
2023-02-16T18:32:15.581Z,-16.33
2023-02-16T18:37:18.302Z,-16.35
2023-02-16T18:42:21.235Z,-16.32
2023-02-16T18:47:24.285Z,-16.32
2023-02-16T18:52:27.055Z,-16.41
2023-02-16T18:57:29.682Z,-16.47
2023-02-16T19:02:32.659Z,-16.58
2023-02-16T19:07:35.681Z,-16.67
2023-02-16T19:12:39.549Z,-16.80
2023-02-16T19:17:42.353Z,-16.89
2023-02-16T19:22:46.670Z,-17.04
2023-02-16T19:27:49.621Z,-17.14
2023-02-16T19:32:52.235Z,-17.09
2023-02-16T19:37:54.904Z,-17.15
2023-02-16T19:42:57.636Z,-17.19
2023-02-16T19:48:00.402Z,-17.16
2023-02-16T19:53:03.080Z,-17.21
2023-02-16T19:58:05.783Z,-17.16
2023-02-16T20:03:10.158Z,-17.12
2023-02-16T20:08:12.774Z,-17.05
2023-02-16T20:13:15.611Z,-16.97
2023-02-16T20:18:18.402Z,-16.96
2023-02-16T20:23:21.029Z,-16.85
2023-02-16T20:28:24.628Z,-16.78
2023-02-16T20:33:27.707Z,-16.66
2023-02-16T20:38:30.632Z,-16.68
2023-02-16T20:43:33.723Z,-16.64
2023-02-16T20:48:36.360Z,-16.71
2023-02-16T20:53:39.346Z,-16.76
2023-02-16T20:58:43.469Z,-16.85
2023-02-16T21:03:46.170Z,-17.11
2023-02-16T21:08:48.979Z,-17.02
2023-02-16T21:13:52.193Z,-17.05
2023-02-16T21:18:54.756Z,-17.08
2023-02-16T21:23:57.495Z,-17.24
2023-02-16T21:29:00.292Z,-17.24
2023-02-16T21:34:02.914Z,-17.30
2023-02-16T21:39:05.573Z,-17.23
2023-02-16T21:44:15.818Z,-17.23
2023-02-16T21:49:20.332Z,-17.21
2023-02-16T21:54:42.919Z,-17.17
2023-02-16T21:59:45.527Z,-17.34
2023-02-16T22:04:49.309Z,-17.13
2023-02-16T22:09:51.946Z,-17.13
2023-02-16T22:14:54.584Z,-17.08
2023-02-16T22:19:57.327Z,-17.07
2023-02-16T22:25:00.011Z,-17.08
2023-02-16T22:30:02.761Z,-17.09
2023-02-16T22:35:06.268Z,-16.93
2023-02-16T22:40:09.297Z,-17.01
2023-02-16T22:45:12.024Z,-16.91
2023-02-16T22:50:14.682Z,-16.85
2023-02-16T22:55:17.482Z,-16.83
2023-02-16T23:00:20.329Z,-16.90
2023-02-16T23:05:22.952Z,-17.03
2023-02-16T23:10:25.720Z,-17.09
2023-02-16T23:15:28.294Z,-17.14
2023-02-16T23:20:31.143Z,-17.19
2023-02-16T23:25:33.827Z,-17.30
2023-02-16T23:30:36.490Z,-17.26
2023-02-16T23:35:40.695Z,-17.18
2023-02-16T23:40:43.943Z,-17.07
2023-02-16T23:45:46.749Z,-17.20
2023-02-16T23:50:51.009Z,-16.93
2023-02-16T23:56:06.219Z,-16.85
